createdAt,value
2022-12-18T00:01:22.553Z,22.73
2022-12-18T00:03:53.445Z,21.73
2022-12-18T00:06:22.298Z,24.90
2022-12-18T00:08:49.133Z,26.73
2022-12-18T00:11:17.060Z,20.02
2022-12-18T00:13:43.886Z,25.02
2022-12-18T00:16:11.730Z,20.63
2022-12-18T00:18:39.920Z,25.23
2022-12-18T00:21:08.505Z,26.65
2022-12-18T00:23:38.814Z,22.27
2022-12-18T00:26:07.315Z,21.60
2022-12-18T00:28:34.211Z,21.23
2022-12-18T00:31:22.717Z,23.33
2022-12-18T00:33:53.890Z,24.33
2022-12-18T00:36:23.766Z,21.13
2022-12-18T00:38:52.554Z,24.30
2022-12-18T00:41:39.709Z,24.15
2022-12-18T00:44:07.023Z,23.80
2022-12-18T00:46:41.286Z,24.73
2022-12-18T00:49:10.266Z,23.92
2022-12-18T00:51:44.888Z,23.65
2022-12-18T00:54:11.420Z,22.90
2022-12-18T00:56:48.060Z,19.35
2022-12-18T00:59:17.511Z,17.75
2022-12-18T01:01:44.511Z,22.25
2022-12-18T01:04:13.707Z,23.02
2022-12-18T01:06:40.698Z,25.75
2022-12-18T01:09:07.212Z,21.65
2022-12-18T01:11:33.678Z,23.00
2022-12-18T01:14:00.225Z,24.73
2022-12-18T01:16:34.881Z,23.23
2022-12-18T01:19:01.353Z,21.90
2022-12-18T01:21:27.993Z,21.30
2022-12-18T01:24:01.271Z,20.17
2022-12-18T01:26:31.313Z,23.23
2022-12-18T01:28:58.045Z,23.13
2022-12-18T01:31:25.926Z,21.90
2022-12-18T01:33:53.664Z,25.15
2022-12-18T01:36:22.222Z,24.48
2022-12-18T01:38:48.994Z,20.90
2022-12-18T01:41:21.136Z,24.27
2022-12-18T01:43:49.875Z,22.52
2022-12-18T01:46:17.634Z,20.27
2022-12-18T01:48:45.441Z,18.90
2022-12-18T01:51:12.658Z,23.02
2022-12-18T01:53:43.175Z,24.40
2022-12-18T01:56:13.113Z,18.58
2022-12-18T01:58:47.763Z,24.40
2022-12-18T02:01:20.600Z,24.55
2022-12-18T02:03:46.998Z,19.25
2022-12-18T02:06:18.358Z,23.38
2022-12-18T02:08:44.883Z,24.77
2022-12-18T02:11:19.401Z,24.95
2022-12-18T02:13:47.532Z,22.80
2022-12-18T02:16:27.024Z,23.20
2022-12-18T02:19:01.229Z,22.80
2022-12-18T02:21:52.272Z,22.55
2022-12-18T02:24:26.881Z,19.58
2022-12-18T02:26:58.814Z,17.15
2022-12-18T02:29:34.460Z,19.13
2022-12-18T02:32:01.077Z,21.50
2022-12-18T02:34:33.142Z,19.70
2022-12-18T02:37:04.349Z,20.20
2022-12-18T02:39:31.953Z,23.27
2022-12-18T02:41:59.031Z,23.90
2022-12-18T02:44:25.535Z,23.60
2022-12-18T02:46:53.367Z,22.67
2022-12-18T02:49:22.828Z,20.73
2022-12-18T02:51:53.728Z,20.63
2022-12-18T02:54:38.791Z,21.17
2022-12-18T02:57:18.783Z,22.65
2022-12-18T03:00:08.715Z,22.50
2022-12-18T03:02:41.659Z,22.33
2022-12-18T03:05:12.423Z,21.40
2022-12-18T03:08:08.332Z,21.13
2022-12-18T03:10:36.412Z,22.43
2022-12-18T03:13:08.268Z,13.65
2022-12-18T03:15:38.641Z,18.25
2022-12-18T03:18:11.119Z,20.60
2022-12-18T03:20:37.927Z,20.13
2022-12-18T03:23:26.419Z,17.80
2022-12-18T03:26:07.150Z,17.77
2022-12-18T03:28:36.483Z,15.13
2022-12-18T03:31:04.831Z,18.73
2022-12-18T03:33:52.341Z,17.73
2022-12-18T03:36:19.006Z,15.70
2022-12-18T03:38:47.160Z,19.30
2022-12-18T03:41:19.228Z,15.80
2022-12-18T03:44:02.059Z,20.77
2022-12-18T03:46:37.213Z,17.60
2022-12-18T03:49:11.023Z,18.88
2022-12-18T03:51:42.433Z,19.17
2022-12-18T03:54:10.347Z,18.50
2022-12-18T03:56:40.012Z,18.65
2022-12-18T03:59:06.974Z,16.35
2022-12-18T04:01:39.391Z,17.77
2022-12-18T04:04:08.165Z,18.48
2022-12-18T04:06:34.962Z,16.92
2022-12-18T04:09:01.788Z,15.93
2022-12-18T04:11:29.709Z,18.45
2022-12-18T04:14:06.971Z,18.25
2022-12-18T04:16:36.064Z,17.48
2022-12-18T04:19:04.537Z,17.13
2022-12-18T04:21:33.259Z,15.55
2022-12-18T04:23:59.831Z,18.08
2022-12-18T04:26:26.350Z,16.63
2022-12-18T04:28:52.652Z,17.02
2022-12-18T04:31:19.293Z,17.98
2022-12-18T04:33:47.341Z,19.90
2022-12-18T04:36:15.193Z,18.20
2022-12-18T04:38:44.888Z,17.52
2022-12-18T04:41:11.237Z,15.10
2022-12-18T04:43:40.005Z,17.38
2022-12-18T04:46:11.257Z,17.23
2022-12-18T04:48:39.578Z,19.17
2022-12-18T04:51:11.736Z,16.52
2022-12-18T04:53:40.864Z,18.35
2022-12-18T04:56:09.681Z,13.30
2022-12-18T04:58:43.939Z,18.55
2022-12-18T05:01:10.996Z,15.75
2022-12-18T05:03:39.183Z,18.05
2022-12-18T05:06:06.508Z,18.60
2022-12-18T05:08:34.432Z,17.70
2022-12-18T05:11:01.660Z,17.67
2022-12-18T05:13:34.677Z,17.75
2022-12-18T05:16:16.216Z,18.83
2022-12-18T05:18:44.333Z,12.88
2022-12-18T05:21:11.314Z,18.30
2022-12-18T05:23:38.381Z,16.70
2022-12-18T05:26:06.094Z,15.38
2022-12-18T05:28:33.044Z,18.27
2022-12-18T05:31:00.820Z,16.42
2022-12-18T05:33:29.410Z,17.75
2022-12-18T05:35:56.753Z,17.00
2022-12-18T05:38:26.061Z,17.80
2022-12-18T05:40:55.772Z,16.38
2022-12-18T05:46:16.451Z,18.92
2022-12-18T05:48:43.660Z,17.17
2022-12-18T05:51:13.245Z,18.63
2022-12-18T05:53:42.848Z,18.27
2022-12-18T05:56:15.164Z,19.75
2022-12-18T05:58:42.254Z,20.15
2022-12-18T06:01:10.637Z,18.08
2022-12-18T06:03:37.146Z,18.02
2022-12-18T06:06:06.302Z,17.85
2022-12-18T06:08:35.440Z,17.48
2022-12-18T06:11:05.005Z,18.63
2022-12-18T06:13:31.336Z,20.50
2022-12-18T06:16:00.560Z,20.40
2022-12-18T06:18:30.546Z,17.48
2022-12-18T06:20:57.463Z,17.92
2022-12-18T06:23:24.116Z,18.45
2022-12-18T06:25:52.715Z,15.23
2022-12-18T06:28:19.369Z,11.65
2022-12-18T06:30:51.039Z,16.58
2022-12-18T06:33:19.548Z,15.07
2022-12-18T06:35:45.969Z,14.02
2022-12-18T06:38:15.203Z,12.93
2022-12-18T06:40:41.665Z,15.43
2022-12-18T06:43:10.911Z,12.55
2022-12-18T06:45:39.710Z,13.40
2022-12-18T06:48:11.870Z,15.85
2022-12-18T06:50:38.527Z,13.68
2022-12-18T06:53:04.903Z,15.02
2022-12-18T06:55:34.699Z,14.02
2022-12-18T06:58:01.087Z,16.98
2022-12-18T07:00:27.407Z,14.95
2022-12-18T07:02:57.270Z,14.32
2022-12-18T07:05:26.379Z,14.43
2022-12-18T07:07:56.654Z,14.95
2022-12-18T07:10:27.895Z,14.25
2022-12-18T07:12:56.031Z,13.77
2022-12-18T07:15:22.476Z,14.73
2022-12-18T07:17:48.928Z,11.65
2022-12-18T07:20:25.075Z,13.02
2022-12-18T07:22:56.137Z,13.68
2022-12-18T07:25:22.880Z,15.98
2022-12-18T07:27:50.444Z,15.77
2022-12-18T07:30:16.956Z,12.65
2022-12-18T07:32:46.601Z,14.05
2022-12-18T07:35:24.628Z,13.75
2022-12-18T07:37:51.547Z,14.02
2022-12-18T07:40:17.962Z,13.93
2022-12-18T07:42:45.573Z,12.82
2022-12-18T07:45:12.832Z,13.07
2022-12-18T07:47:42.466Z,10.38
2022-12-18T07:50:10.004Z,10.98
2022-12-18T07:52:39.666Z,12.55
2022-12-18T07:55:06.419Z,11.98
2022-12-18T07:57:56.401Z,10.95
2022-12-18T08:00:23.403Z,11.82
2022-12-18T08:02:50.076Z,8.73
2022-12-18T08:05:16.718Z,11.52
2022-12-18T08:07:45.338Z,10.50
2022-12-18T08:10:13.642Z,10.23
2022-12-18T08:12:40.198Z,11.10
2022-12-18T08:15:19.401Z,11.43
2022-12-18T08:17:53.402Z,12.35
2022-12-18T08:20:20.003Z,11.10
2022-12-18T08:22:46.660Z,11.07
2022-12-18T08:25:13.150Z,11.80
2022-12-18T08:27:43.728Z,10.38
2022-12-18T08:30:11.214Z,10.27
2022-12-18T08:32:38.768Z,10.05
2022-12-18T08:35:05.959Z,9.80
2022-12-18T08:37:35.119Z,11.85
2022-12-18T08:40:04.237Z,10.27
2022-12-18T08:42:51.086Z,10.13
2022-12-18T08:45:21.687Z,9.95
2022-12-18T08:47:51.377Z,9.98
2022-12-18T08:50:20.612Z,8.70
2022-12-18T08:52:47.089Z,9.70
2022-12-18T08:55:13.990Z,8.85
2022-12-18T08:57:40.499Z,11.55
2022-12-18T09:00:07.341Z,9.18
2022-12-18T09:02:35.294Z,9.25
2022-12-18T09:05:03.541Z,8.63
2022-12-18T09:07:30.292Z,10.98
2022-12-18T09:09:56.754Z,8.85
2022-12-18T09:12:23.178Z,10.20
2022-12-18T09:14:51.894Z,8.73
2022-12-18T09:17:19.626Z,10.95
2022-12-18T09:19:48.762Z,8.90
2022-12-18T09:22:15.291Z,9.90
2022-12-18T09:24:41.947Z,10.95
2022-12-18T09:27:08.304Z,10.35
2022-12-18T09:29:36.218Z,8.50
2022-12-18T09:32:02.646Z,9.10
2022-12-18T09:34:29.107Z,9.25
2022-12-18T09:36:55.601Z,9.23
2022-12-18T09:39:25.162Z,8.70
2022-12-18T09:41:55.838Z,10.60
2022-12-18T09:44:30.224Z,8.80
2022-12-18T09:47:05.516Z,9.50
2022-12-18T09:49:35.230Z,9.43
2022-12-18T09:52:17.654Z,8.40
2022-12-18T09:54:47.333Z,9.90
2022-12-18T09:57:22.260Z,10.05
2022-12-18T09:59:57.636Z,8.33
2022-12-18T10:02:26.605Z,8.93
2022-12-18T10:05:08.141Z,9.32
2022-12-18T10:07:41.712Z,8.68
2022-12-18T10:10:16.412Z,9.73
2022-12-18T10:12:45.888Z,9.63
2022-12-18T10:15:16.391Z,8.55
2022-12-18T10:18:01.565Z,10.15
2022-12-18T10:20:30.736Z,9.43
2022-12-18T10:22:57.195Z,10.05
2022-12-18T10:25:33.793Z,9.48
2022-12-18T10:28:08.062Z,10.48
2022-12-18T10:30:36.892Z,8.40
2022-12-18T10:33:03.897Z,8.65
2022-12-18T10:35:34.830Z,9.30
2022-12-18T10:38:01.645Z,8.38
2022-12-18T10:40:28.560Z,8.20
2022-12-18T10:43:06.782Z,9.48
2022-12-18T10:45:33.464Z,9.35
2022-12-18T10:48:00.372Z,8.40
2022-12-18T10:50:47.124Z,9.13
2022-12-18T10:53:30.247Z,8.52
2022-12-18T10:55:59.186Z,9.57
2022-12-18T10:58:27.582Z,6.80
2022-12-18T11:01:11.995Z,10.63
2022-12-18T11:03:40.845Z,8.10
2022-12-18T11:06:09.087Z,8.73
2022-12-18T11:08:40.599Z,8.88
2022-12-18T11:11:20.272Z,9.68
2022-12-18T11:13:58.673Z,9.15
2022-12-18T11:16:25.749Z,9.38
2022-12-18T11:18:52.463Z,8.02
2022-12-18T11:21:19.119Z,9.07
2022-12-18T11:23:54.492Z,7.60
2022-12-18T11:26:27.704Z,8.52
2022-12-18T11:29:11.304Z,7.68
2022-12-18T11:31:39.129Z,9.57
2022-12-18T11:34:29.018Z,6.55
2022-12-18T11:36:57.125Z,6.90
2022-12-18T11:39:42.270Z,8.43
2022-12-18T11:42:12.365Z,9.30
2022-12-18T11:44:45.487Z,7.68
2022-12-18T11:47:35.518Z,8.98
2022-12-18T11:50:05.894Z,8.88
2022-12-18T11:52:39.875Z,9.23
2022-12-18T11:55:12.141Z,7.97
2022-12-18T11:57:41.980Z,8.88
2022-12-18T12:00:14.384Z,7.55
2022-12-18T12:02:51.895Z,7.25
2022-12-18T12:05:41.513Z,9.05
2022-12-18T12:08:24.123Z,7.80
2022-12-18T12:10:50.545Z,7.70
2022-12-18T12:13:35.965Z,8.20
2022-12-18T12:16:11.020Z,6.80
2022-12-18T12:18:58.702Z,7.60
2022-12-18T12:21:41.992Z,9.77
2022-12-18T12:24:33.545Z,8.40
2022-12-18T12:27:00.086Z,9.00
2022-12-18T12:29:54.880Z,9.27
2022-12-18T12:32:39.444Z,9.63
2022-12-18T12:35:09.626Z,8.35
2022-12-18T12:37:56.125Z,8.05
2022-12-18T12:40:51.203Z,8.23
2022-12-18T12:43:31.086Z,9.23
2022-12-18T12:46:02.289Z,9.88
2022-12-18T12:48:47.433Z,9.00
2022-12-18T12:51:19.621Z,9.20
2022-12-18T12:53:47.969Z,9.95
2022-12-18T12:56:16.435Z,9.05
2022-12-18T12:58:51.146Z,9.48
2022-12-18T13:01:44.426Z,9.30
2022-12-18T13:04:43.374Z,7.75
2022-12-18T13:07:45.765Z,9.85
2022-12-18T13:10:23.161Z,9.57
2022-12-18T13:13:01.216Z,10.40
2022-12-18T13:15:38.103Z,9.52
2022-12-18T13:18:11.062Z,10.23
2022-12-18T13:20:41.193Z,9.68
2022-12-18T13:23:21.183Z,7.88
2022-12-18T13:25:49.317Z,9.50
2022-12-18T13:28:17.307Z,9.95
2022-12-18T13:31:13.200Z,9.90
2022-12-18T13:34:16.999Z,10.00
2022-12-18T13:36:36.279Z,10.02
2022-12-18T13:39:17.397Z,11.10
2022-12-18T13:41:49.663Z,10.93
2022-12-18T13:44:35.879Z,8.68
2022-12-18T13:47:05.866Z,10.45
2022-12-18T13:49:48.664Z,10.55
2022-12-18T13:52:35.831Z,10.25
2022-12-18T13:55:06.833Z,10.82
2022-12-18T13:57:43.531Z,10.68
2022-12-18T14:00:30.217Z,9.77
2022-12-18T14:02:58.991Z,10.63
2022-12-18T14:05:32.566Z,10.27
2022-12-18T14:08:15.971Z,11.13
2022-12-18T14:10:48.959Z,10.65
2022-12-18T14:13:23.744Z,10.43
2022-12-18T14:15:54.233Z,10.93
2022-12-18T14:18:26.744Z,7.30
2022-12-18T14:21:00.081Z,10.40
2022-12-18T14:23:46.939Z,10.85
2022-12-18T14:26:31.966Z,9.77
2022-12-18T14:29:03.929Z,10.35
2022-12-18T14:31:31.478Z,9.43
2022-12-18T14:33:59.206Z,10.70
2022-12-18T14:36:26.777Z,10.10
2022-12-18T14:38:59.747Z,11.85
2022-12-18T14:41:31.476Z,10.68
2022-12-18T14:44:05.879Z,10.02
2022-12-18T14:46:39.191Z,9.57
2022-12-18T14:49:17.838Z,11.10
2022-12-18T14:51:49.098Z,10.60
2022-12-18T14:54:17.045Z,12.10
2022-12-18T14:56:52.970Z,10.90
2022-12-18T15:02:03.213Z,10.70
2022-12-18T15:04:53.643Z,10.90
2022-12-18T15:07:24.400Z,8.77
2022-12-18T15:10:03.399Z,10.68
2022-12-18T15:12:38.996Z,11.35
2022-12-18T15:15:08.907Z,11.27
2022-12-18T15:17:45.902Z,10.98
2022-12-18T15:20:12.698Z,11.65
2022-12-18T15:22:39.187Z,11.98
2022-12-18T15:25:24.002Z,12.13
2022-12-18T15:27:50.692Z,11.05
2022-12-18T15:30:24.002Z,11.93
2022-12-18T15:32:51.274Z,11.70
2022-12-18T15:35:22.312Z,12.23
2022-12-18T15:37:49.463Z,11.45
2022-12-18T15:40:19.968Z,11.43
2022-12-18T15:43:06.833Z,11.45
2022-12-18T15:45:33.550Z,11.60
2022-12-18T15:48:02.405Z,11.43
2022-12-18T15:50:29.199Z,11.30
2022-12-18T15:52:59.109Z,11.88
2022-12-18T15:55:44.262Z,11.60
2022-12-18T15:58:14.475Z,12.05
2022-12-18T16:00:44.958Z,11.70
2022-12-18T16:03:16.197Z,10.90
2022-12-18T16:05:45.752Z,10.50
2022-12-18T16:08:13.602Z,11.15
2022-12-18T16:10:40.168Z,10.88
2022-12-18T16:13:15.960Z,11.88
2022-12-18T16:15:45.753Z,11.63
2022-12-18T16:18:13.389Z,11.07
2022-12-18T16:20:41.309Z,11.45
2022-12-18T16:23:08.008Z,11.32
2022-12-18T16:25:34.528Z,11.07
2022-12-18T16:28:03.972Z,10.93
2022-12-18T16:30:38.073Z,9.25
2022-12-18T16:33:05.263Z,10.45
2022-12-18T16:35:39.834Z,12.45
2022-12-18T16:38:06.494Z,11.57
2022-12-18T16:40:55.713Z,11.23
2022-12-18T16:43:24.468Z,11.40
2022-12-18T16:45:59.069Z,11.38
2022-12-18T16:48:28.453Z,11.07
2022-12-18T16:51:02.644Z,11.65
2022-12-18T16:53:30.584Z,11.85
2022-12-18T16:56:05.812Z,12.15
2022-12-18T16:58:33.442Z,11.40
2022-12-18T17:01:00.531Z,11.38
2022-12-18T17:03:27.329Z,11.77
2022-12-18T17:05:58.350Z,12.82
2022-12-18T17:08:25.288Z,12.23
2022-12-18T17:13:34.934Z,11.57
2022-12-18T17:16:07.363Z,12.25
2022-12-18T17:18:34.643Z,11.95
2022-12-18T17:21:04.589Z,11.73
2022-12-18T17:23:31.478Z,12.13
2022-12-18T17:25:58.341Z,12.18
2022-12-18T17:28:28.074Z,12.45
2022-12-18T17:30:57.773Z,13.60
2022-12-18T17:33:26.908Z,12.27
2022-12-18T17:35:56.258Z,12.23
2022-12-18T17:38:22.887Z,11.75
2022-12-18T17:40:49.414Z,12.95
2022-12-18T17:43:17.505Z,12.13
2022-12-18T17:45:44.032Z,12.05
2022-12-18T17:48:10.721Z,12.10
2022-12-18T17:50:38.736Z,12.68
2022-12-18T17:53:07.796Z,12.65
2022-12-18T17:55:34.573Z,12.73
2022-12-18T17:58:04.040Z,13.70
2022-12-18T18:00:30.414Z,12.82
2022-12-18T18:02:59.344Z,12.85
2022-12-18T18:05:25.888Z,13.45
2022-12-18T18:08:10.584Z,12.68
2022-12-18T18:10:39.873Z,14.32
2022-12-18T18:13:25.707Z,13.80
2022-12-18T18:15:57.141Z,13.98
2022-12-18T18:18:23.699Z,13.23
2022-12-18T18:20:51.720Z,13.52
2022-12-18T18:23:24.944Z,13.93
2022-12-18T18:25:53.719Z,12.77
2022-12-18T18:28:20.840Z,14.65
2022-12-18T18:30:49.849Z,13.00
2022-12-18T18:33:16.297Z,13.63
2022-12-18T18:35:54.329Z,12.13
2022-12-18T18:38:24.011Z,11.82
2022-12-18T18:41:00.731Z,12.85
2022-12-18T18:43:27.348Z,14.18
2022-12-18T18:46:00.720Z,12.05
2022-12-18T18:48:30.225Z,13.18
2022-12-18T18:51:00.070Z,13.02
2022-12-18T18:53:29.597Z,13.20
2022-12-18T18:56:34.823Z,13.63
2022-12-18T18:58:46.761Z,13.45
2022-12-18T19:01:23.651Z,13.88
2022-12-18T19:03:50.156Z,14.40
2022-12-18T19:06:30.457Z,13.35
2022-12-18T19:08:58.567Z,14.15
2022-12-18T19:11:45.363Z,13.95
2022-12-18T19:14:14.419Z,13.30
2022-12-18T19:16:41.202Z,13.43
2022-12-18T19:19:08.374Z,10.43
2022-12-18T19:21:41.093Z,14.07
2022-12-18T19:24:07.743Z,14.57
2022-12-18T19:26:38.740Z,13.48
2022-12-18T19:29:06.047Z,14.80
2022-12-18T19:31:37.167Z,11.85
2022-12-18T19:34:07.289Z,14.38
2022-12-18T19:36:34.604Z,14.50
2022-12-18T19:39:08.689Z,14.15
2022-12-18T19:41:37.322Z,15.07
2022-12-18T19:44:07.610Z,14.35
2022-12-18T19:46:42.030Z,15.25
2022-12-18T19:49:11.833Z,14.88
2022-12-18T19:51:44.160Z,13.93
2022-12-18T19:54:16.203Z,14.30
2022-12-18T19:56:53.885Z,14.75
2022-12-18T19:59:20.273Z,14.13
2022-12-18T20:01:49.789Z,14.30
2022-12-18T20:04:16.541Z,12.70
2022-12-18T20:06:47.541Z,13.43
2022-12-18T20:09:14.196Z,13.93
2022-12-18T20:11:42.007Z,14.60
2022-12-18T20:14:12.347Z,14.65
2022-12-18T20:16:41.961Z,15.07
2022-12-18T20:19:11.285Z,13.15
2022-12-18T20:21:37.708Z,14.27
2022-12-18T20:24:04.915Z,14.38
2022-12-18T20:26:31.406Z,14.02
2022-12-18T20:28:57.826Z,15.13
2022-12-18T20:31:24.380Z,15.13
2022-12-18T20:33:54.576Z,14.85
2022-12-18T20:36:25.830Z,13.90
2022-12-18T20:38:57.190Z,14.85
2022-12-18T20:41:25.667Z,13.48
2022-12-18T20:43:53.821Z,13.52
2022-12-18T20:46:20.575Z,14.02
2022-12-18T20:48:48.648Z,13.85
2022-12-18T20:51:16.827Z,14.93
2022-12-18T20:53:43.913Z,14.70
2022-12-18T20:56:17.761Z,14.88
2022-12-18T20:58:48.626Z,14.48
2022-12-18T21:01:16.430Z,13.52
2022-12-18T21:03:43.603Z,15.00
2022-12-18T21:06:10.689Z,13.52
2022-12-18T21:08:37.326Z,14.68
2022-12-18T21:11:49.888Z,14.38
2022-12-18T21:14:17.902Z,14.85
2022-12-18T21:16:46.889Z,15.27
2022-12-18T21:19:14.663Z,13.27
2022-12-18T21:21:43.935Z,14.43
2022-12-18T21:24:11.759Z,12.98
2022-12-18T21:26:44.891Z,14.60
2022-12-18T21:29:14.097Z,14.40
2022-12-18T21:31:41.029Z,13.93
2022-12-18T21:34:07.910Z,14.30
2022-12-18T21:36:35.144Z,14.23
2022-12-18T21:39:04.607Z,13.60
2022-12-18T21:41:49.613Z,13.40
2022-12-18T21:44:21.472Z,13.32
2022-12-18T21:46:53.138Z,13.90
2022-12-18T21:49:23.757Z,13.02
2022-12-18T21:51:50.942Z,13.18
2022-12-18T21:54:17.893Z,13.80
2022-12-18T21:56:50.258Z,13.68
2022-12-18T21:59:18.583Z,14.57
2022-12-18T22:01:53.007Z,10.93
2022-12-18T22:04:19.691Z,14.35
2022-12-18T22:06:51.448Z,13.32
2022-12-18T22:09:20.519Z,13.68
2022-12-18T22:11:47.407Z,13.82
2022-12-18T22:14:16.083Z,13.40
2022-12-18T22:16:45.175Z,14.75
2022-12-18T22:19:11.949Z,13.25
2022-12-18T22:21:40.847Z,14.27
2022-12-18T22:24:34.741Z,13.77
2022-12-18T22:27:03.398Z,13.73
2022-12-18T22:29:58.977Z,14.18
2022-12-18T22:32:31.462Z,14.77
2022-12-18T22:35:07.932Z,14.20
2022-12-18T22:37:37.244Z,13.93
2022-12-18T22:40:04.483Z,13.50
2022-12-18T22:42:31.356Z,12.20
2022-12-18T22:45:00.842Z,12.43
2022-12-18T22:47:30.123Z,13.65
2022-12-18T22:49:58.525Z,14.07
2022-12-18T22:52:25.393Z,12.43
2022-12-18T22:54:53.328Z,13.88
2022-12-18T22:57:24.918Z,12.38
2022-12-18T22:59:51.770Z,13.75
2022-12-18T23:02:19.052Z,12.85
2022-12-18T23:04:45.733Z,13.07
2022-12-18T23:07:12.591Z,12.45
2022-12-18T23:09:39.197Z,14.02
2022-12-18T23:12:08.463Z,13.55
2022-12-18T23:14:35.017Z,12.55
2022-12-18T23:17:03.889Z,13.70
2022-12-18T23:19:37.507Z,12.77
2022-12-18T23:22:10.162Z,12.85
2022-12-18T23:24:40.809Z,11.88
2022-12-18T23:27:11.920Z,12.00
2022-12-18T23:29:39.226Z,11.32
2022-12-18T23:32:05.638Z,11.07
2022-12-18T23:34:32.264Z,11.32
2022-12-18T23:37:00.089Z,11.85
2022-12-18T23:39:30.275Z,11.02
2022-12-18T23:42:00.467Z,9.52
2022-12-18T23:44:27.218Z,11.60
2022-12-18T23:46:53.843Z,11.23
2022-12-18T23:49:20.316Z,11.98
2022-12-18T23:51:46.851Z,10.40
2022-12-18T23:54:14.371Z,10.40
2022-12-18T23:56:40.863Z,10.57
2022-12-18T23:59:07.458Z,10.68
